createdAt,value
2018-12-06T00:01:32.704Z,3.03
2018-12-06T00:04:02.398Z,3.04
2018-12-06T00:06:31.993Z,2.94
2018-12-06T00:09:01.437Z,2.94
2018-12-06T00:11:31.321Z,2.96
2018-12-06T00:14:01.121Z,2.97
2018-12-06T00:16:30.684Z,2.83
2018-12-06T00:19:10.549Z,2.80
2018-12-06T00:21:40.462Z,2.71
2018-12-06T00:24:10.106Z,2.85
2018-12-06T00:26:39.718Z,2.94
2018-12-06T00:29:09.735Z,2.96
2018-12-06T00:31:39.412Z,2.86
2018-12-06T00:34:09.062Z,2.89
2018-12-06T00:36:38.515Z,2.77
2018-12-06T00:39:09.201Z,2.85
2018-12-06T00:41:38.872Z,2.83
2018-12-06T00:44:08.547Z,2.73
2018-12-06T00:46:38.598Z,2.67
2018-12-06T00:49:08.344Z,2.64
2018-12-06T00:51:38.261Z,2.65
2018-12-06T00:54:07.820Z,2.61
2018-12-06T00:56:38.001Z,2.30
2018-12-06T00:59:07.622Z,2.64
2018-12-06T01:01:37.421Z,2.84
2018-12-06T01:04:07.082Z,2.88
2018-12-06T01:06:36.696Z,2.50
2018-12-06T01:09:13.792Z,2.76
2018-12-06T01:11:43.504Z,2.67
2018-12-06T01:14:13.318Z,2.60
2018-12-06T01:16:43.117Z,2.54
2018-12-06T01:19:12.833Z,2.55
2018-12-06T01:21:42.634Z,2.47
2018-12-06T01:24:12.356Z,2.40
2018-12-06T01:26:42.222Z,2.39
2018-12-06T01:29:11.865Z,2.28
2018-12-06T01:31:41.472Z,2.51
2018-12-06T01:34:11.158Z,2.38
2018-12-06T01:36:40.832Z,2.21
2018-12-06T01:39:10.696Z,2.15
2018-12-06T01:41:40.384Z,2.19
2018-12-06T01:44:10.009Z,2.22
2018-12-06T01:46:39.555Z,2.21
2018-12-06T01:49:09.241Z,2.18
2018-12-06T01:51:39.142Z,2.29
2018-12-06T01:54:08.791Z,2.17
2018-12-06T01:56:38.319Z,2.15
2018-12-06T01:59:07.979Z,1.99
2018-12-06T02:01:37.455Z,1.88
2018-12-06T02:04:07.027Z,1.94
2018-12-06T02:06:36.587Z,1.82
2018-12-06T02:09:10.384Z,1.74
2018-12-06T02:11:40.883Z,1.76
2018-12-06T02:14:11.213Z,1.80
2018-12-06T02:16:41.038Z,1.72
2018-12-06T02:19:10.749Z,1.76
2018-12-06T02:21:40.734Z,-0.10
2018-12-06T02:24:10.319Z,1.77
2018-12-06T02:26:40.101Z,1.66
2018-12-06T02:29:09.650Z,1.69
2018-12-06T02:31:39.547Z,1.62
2018-12-06T02:34:09.463Z,1.63
2018-12-06T02:36:39.186Z,1.50
2018-12-06T02:39:09.591Z,1.53
2018-12-06T02:41:39.183Z,1.43
2018-12-06T02:44:09.019Z,1.44
2018-12-06T02:46:38.778Z,1.58
2018-12-06T02:49:08.272Z,1.56
2018-12-06T02:51:38.020Z,1.43
2018-12-06T02:54:07.806Z,1.34
2018-12-06T02:56:37.304Z,1.21
2018-12-06T02:59:07.069Z,1.19
2018-12-06T03:01:36.835Z,1.20
2018-12-06T03:04:06.520Z,0.96
2018-12-06T03:06:36.170Z,0.98
2018-12-06T03:09:07.659Z,0.87
2018-12-06T03:11:37.926Z,0.74
2018-12-06T03:14:07.361Z,0.67
2018-12-06T03:16:37.006Z,0.64
2018-12-06T03:19:06.850Z,0.57
2018-12-06T03:21:36.481Z,0.54
2018-12-06T03:24:06.153Z,0.72
2018-12-06T03:26:35.889Z,0.76
2018-12-06T03:29:05.612Z,0.98
2018-12-06T03:31:35.128Z,0.90
2018-12-06T03:34:05.221Z,0.97
2018-12-06T03:36:34.927Z,1.07
2018-12-06T03:39:06.370Z,1.15
2018-12-06T03:41:36.170Z,1.12
2018-12-06T03:44:05.809Z,0.99
2018-12-06T03:46:35.661Z,0.94
2018-12-06T03:49:05.195Z,0.83
2018-12-06T03:51:34.837Z,0.61
2018-12-06T03:54:04.413Z,0.60
2018-12-06T03:56:34.064Z,0.56
2018-12-06T03:59:03.914Z,0.56
2018-12-06T04:01:33.557Z,0.50
2018-12-06T04:04:03.346Z,0.51
2018-12-06T04:06:32.958Z,0.53
2018-12-06T04:09:02.854Z,0.48
2018-12-06T04:11:32.362Z,0.45
2018-12-06T04:14:01.910Z,0.30
2018-12-06T04:16:31.683Z,0.19
2018-12-06T04:19:01.223Z,0.18
2018-12-06T04:21:31.044Z,0.07
2018-12-06T04:24:00.804Z,-0.09
2018-12-06T04:26:30.304Z,0.08
2018-12-06T04:28:59.819Z,-0.01
2018-12-06T04:31:29.314Z,0.02
2018-12-06T04:33:59.972Z,-0.12
2018-12-06T04:36:30.502Z,-0.15
2018-12-06T04:39:00.184Z,-0.33
2018-12-06T04:41:29.764Z,-0.40
2018-12-06T04:43:59.649Z,-0.41
2018-12-06T04:46:29.211Z,-0.54
2018-12-06T04:48:59.023Z,-0.44
2018-12-06T04:51:28.744Z,-0.68
2018-12-06T04:53:58.493Z,-0.65
2018-12-06T04:56:28.396Z,-0.49
2018-12-06T04:58:58.065Z,-0.67
2018-12-06T05:01:27.949Z,-0.66
2018-12-06T05:03:57.766Z,-0.80
2018-12-06T05:06:27.386Z,-1.14
2018-12-06T05:08:57.287Z,-0.76
2018-12-06T05:11:26.904Z,-0.83
2018-12-06T05:13:56.473Z,-0.85
2018-12-06T05:16:25.973Z,-0.82
2018-12-06T05:18:55.755Z,-0.90
2018-12-06T05:21:25.572Z,-0.93
2018-12-06T05:23:55.175Z,-0.92
2018-12-06T05:26:24.967Z,-0.98
2018-12-06T05:28:54.584Z,-1.05
2018-12-06T05:31:24.123Z,-1.11
2018-12-06T05:33:53.727Z,-1.12
2018-12-06T05:36:23.498Z,-1.09
2018-12-06T05:38:53.364Z,-1.07
2018-12-06T05:41:22.906Z,-0.96
2018-12-06T05:43:52.422Z,-1.01
2018-12-06T05:46:21.914Z,-1.04
2018-12-06T05:48:51.554Z,-1.00
2018-12-06T05:51:21.181Z,-0.98
2018-12-06T05:53:51.133Z,-0.82
2018-12-06T05:56:20.735Z,-0.91
2018-12-06T05:58:50.465Z,-0.88
2018-12-06T06:01:19.916Z,-0.73
2018-12-06T06:03:49.484Z,-0.71
2018-12-06T06:06:18.994Z,-0.48
2018-12-06T06:08:48.482Z,-0.26
2018-12-06T06:11:18.096Z,0.13
2018-12-06T06:13:47.650Z,1.26
2018-12-06T06:16:17.391Z,2.87
2018-12-06T06:18:47.041Z,4.15
2018-12-06T06:21:16.623Z,5.30
2018-12-06T06:23:46.248Z,6.18
2018-12-06T06:26:15.912Z,7.12
2018-12-06T06:28:45.435Z,7.37
2018-12-06T06:31:15.063Z,7.40
2018-12-06T06:33:44.791Z,7.34
2018-12-06T06:36:14.479Z,8.17
2018-12-06T06:38:43.967Z,8.22
2018-12-06T06:41:13.478Z,8.88
2018-12-06T06:43:43.187Z,9.77
2018-12-06T06:46:12.798Z,10.07
2018-12-06T06:48:42.416Z,10.16
2018-12-06T06:51:12.099Z,10.21
2018-12-06T06:53:41.898Z,10.00
2018-12-06T06:56:11.459Z,10.47
2018-12-06T06:58:41.134Z,10.74
2018-12-06T07:01:10.674Z,11.45
2018-12-06T07:03:40.317Z,11.82
2018-12-06T07:06:09.870Z,12.60
2018-12-06T07:08:39.757Z,12.93
2018-12-06T07:11:09.368Z,11.99
2018-12-06T07:13:38.881Z,12.07
2018-12-06T07:16:08.481Z,11.88
2018-12-06T07:18:38.063Z,11.89
2018-12-06T07:21:07.730Z,11.68
2018-12-06T07:23:37.377Z,12.18
2018-12-06T07:26:07.223Z,11.57
2018-12-06T07:28:36.831Z,12.37
2018-12-06T07:31:06.450Z,11.38
2018-12-06T07:33:36.112Z,11.40
2018-12-06T07:36:05.743Z,11.36
2018-12-06T07:38:35.640Z,11.92
2018-12-06T07:41:05.368Z,11.98
2018-12-06T07:43:35.141Z,10.99
2018-12-06T07:46:11.411Z,12.20
2018-12-06T07:48:41.028Z,11.81
2018-12-06T07:51:10.530Z,12.38
2018-12-06T07:53:40.177Z,12.47
2018-12-06T07:56:09.854Z,13.71
2018-12-06T07:58:39.510Z,12.96
2018-12-06T08:01:09.865Z,13.32
2018-12-06T08:03:40.244Z,13.21
2018-12-06T08:06:10.017Z,13.06
2018-12-06T08:08:39.745Z,13.46
2018-12-06T08:11:09.381Z,13.39
2018-12-06T08:13:39.567Z,13.90
2018-12-06T08:16:09.715Z,14.21
2018-12-06T08:18:39.307Z,13.93
2018-12-06T08:21:08.946Z,14.73
2018-12-06T08:23:38.697Z,14.54
2018-12-06T08:26:08.583Z,14.79
2018-12-06T08:28:38.318Z,14.95
2018-12-06T08:31:08.000Z,15.46
2018-12-06T08:33:37.567Z,15.61
2018-12-06T08:36:07.459Z,15.90
2018-12-06T08:38:37.301Z,16.45
2018-12-06T08:41:06.948Z,16.50
2018-12-06T08:43:36.620Z,16.69
2018-12-06T08:46:06.344Z,16.43
2018-12-06T08:48:36.311Z,16.64
2018-12-06T08:51:05.942Z,16.78
2018-12-06T08:53:35.653Z,16.73
2018-12-06T08:56:05.441Z,16.11
2018-12-06T08:58:35.490Z,16.20
2018-12-06T09:01:05.308Z,16.42
2018-12-06T09:03:35.325Z,16.61
2018-12-06T09:06:05.292Z,17.01
2018-12-06T09:08:35.142Z,16.80
2018-12-06T09:11:04.932Z,17.11
2018-12-06T09:13:34.642Z,17.76
2018-12-06T09:16:05.685Z,17.26
2018-12-06T09:18:35.491Z,17.13
2018-12-06T09:21:05.175Z,17.15
2018-12-06T09:23:34.938Z,17.04
2018-12-06T09:26:04.514Z,16.96
2018-12-06T09:28:34.297Z,17.43
2018-12-06T09:31:03.930Z,17.98
2018-12-06T09:33:35.491Z,17.77
2018-12-06T09:36:05.294Z,17.70
2018-12-06T09:38:35.352Z,17.24
2018-12-06T09:41:05.264Z,16.89
2018-12-06T09:43:34.969Z,17.15
2018-12-06T09:46:41.745Z,18.33
2018-12-06T09:49:11.470Z,17.55
2018-12-06T09:51:41.796Z,16.89
2018-12-06T09:54:11.567Z,17.04
2018-12-06T09:56:42.085Z,16.84
2018-12-06T09:59:11.702Z,17.27
2018-12-06T10:01:41.331Z,17.16
2018-12-06T10:04:11.113Z,17.32
2018-12-06T10:06:40.920Z,17.61
2018-12-06T10:09:10.590Z,17.15
2018-12-06T10:11:40.103Z,17.11
2018-12-06T10:14:10.070Z,16.07
2018-12-06T10:16:39.831Z,16.29
2018-12-06T10:19:09.720Z,16.45
2018-12-06T10:21:39.705Z,16.46
2018-12-06T10:24:09.431Z,16.60
2018-12-06T10:26:39.592Z,15.74
2018-12-06T10:29:09.159Z,16.16
2018-12-06T10:31:38.949Z,15.84
2018-12-06T10:34:08.704Z,15.45
2018-12-06T10:36:38.552Z,15.23
2018-12-06T10:39:09.499Z,15.57
2018-12-06T10:41:39.250Z,16.29
2018-12-06T10:44:09.137Z,15.55
2018-12-06T10:46:38.871Z,15.42
2018-12-06T10:49:08.714Z,14.98
2018-12-06T10:51:44.074Z,15.06
2018-12-06T10:54:13.890Z,15.03
2018-12-06T10:56:43.804Z,14.92
2018-12-06T10:59:13.512Z,14.76
2018-12-06T11:01:48.764Z,15.20
2018-12-06T11:04:18.671Z,15.43
2018-12-06T11:06:48.732Z,14.72
2018-12-06T11:09:18.488Z,14.61
2018-12-06T11:11:48.555Z,14.08
2018-12-06T11:14:18.115Z,14.49
2018-12-06T11:16:47.675Z,14.86
2018-12-06T11:19:17.478Z,14.08
2018-12-06T11:21:47.187Z,14.61
2018-12-06T11:24:17.077Z,14.69
2018-12-06T11:26:46.657Z,14.83
2018-12-06T11:29:16.630Z,14.82
2018-12-06T11:31:46.426Z,14.89
2018-12-06T11:34:16.746Z,14.34
2018-12-06T11:36:46.467Z,13.71
2018-12-06T11:39:16.202Z,13.27
2018-12-06T11:41:45.751Z,13.53
2018-12-06T11:44:15.895Z,13.68
2018-12-06T11:46:45.535Z,13.78
2018-12-06T11:49:15.262Z,13.65
2018-12-06T11:51:45.118Z,13.19
2018-12-06T11:54:14.730Z,13.19
2018-12-06T11:56:44.405Z,12.97
2018-12-06T11:59:14.254Z,12.47
2018-12-06T12:01:44.313Z,13.20
2018-12-06T12:04:14.070Z,13.25
2018-12-06T12:06:43.743Z,13.48
2018-12-06T12:09:13.773Z,12.98
2018-12-06T12:11:43.480Z,12.83
2018-12-06T12:14:13.521Z,13.41
2018-12-06T12:16:43.126Z,13.11
2018-12-06T12:19:12.886Z,13.04
2018-12-06T12:21:42.685Z,13.01
2018-12-06T12:24:12.596Z,12.83
2018-12-06T12:26:42.489Z,13.20
2018-12-06T12:29:13.402Z,13.16
2018-12-06T12:31:43.187Z,12.69
2018-12-06T12:34:12.900Z,12.87
2018-12-06T12:36:42.658Z,12.10
2018-12-06T12:39:12.525Z,12.34
2018-12-06T12:41:42.270Z,12.08
2018-12-06T12:44:12.090Z,11.32
2018-12-06T12:46:42.088Z,11.27
2018-12-06T12:49:12.518Z,10.75
2018-12-06T12:51:42.646Z,10.65
2018-12-06T12:54:12.768Z,10.37
2018-12-06T12:56:42.604Z,9.98
2018-12-06T12:59:12.322Z,9.68
2018-12-06T13:01:42.564Z,9.64
2018-12-06T13:04:13.692Z,9.44
2018-12-06T13:06:43.457Z,9.37
2018-12-06T13:09:13.334Z,9.18
2018-12-06T13:11:42.979Z,9.00
2018-12-06T13:14:12.768Z,9.04
2018-12-06T13:16:43.446Z,8.99
2018-12-06T13:19:13.030Z,8.81
2018-12-06T13:21:42.920Z,8.71
2018-12-06T13:24:12.757Z,8.70
2018-12-06T13:26:42.419Z,8.60
2018-12-06T13:29:12.444Z,8.59
2018-12-06T13:31:43.292Z,8.62
2018-12-06T13:34:13.367Z,8.66
2018-12-06T13:36:43.220Z,8.58
2018-12-06T13:39:13.478Z,8.64
2018-12-06T13:41:43.081Z,8.42
2018-12-06T13:44:14.504Z,8.47
2018-12-06T13:46:44.500Z,8.49
2018-12-06T13:49:14.229Z,8.53
2018-12-06T13:51:44.242Z,8.44
2018-12-06T13:54:14.032Z,8.47
2018-12-06T13:56:43.757Z,8.52
2018-12-06T13:59:13.303Z,8.06
2018-12-06T14:01:42.961Z,8.06
2018-12-06T14:04:12.560Z,7.89
2018-12-06T14:06:42.456Z,7.76
2018-12-06T14:09:12.011Z,7.54
2018-12-06T14:11:41.941Z,7.42
2018-12-06T14:14:11.722Z,7.35
2018-12-06T14:16:42.268Z,7.29
2018-12-06T14:19:12.349Z,7.12
2018-12-06T14:21:42.089Z,6.93
2018-12-06T14:24:12.219Z,6.68
2018-12-06T14:26:41.922Z,6.47
2018-12-06T14:29:11.850Z,6.41
2018-12-06T14:31:41.532Z,6.36
2018-12-06T14:34:11.220Z,6.19
2018-12-06T14:36:40.953Z,6.01
2018-12-06T14:39:11.119Z,5.93
2018-12-06T14:41:40.726Z,5.79
2018-12-06T14:44:10.644Z,5.71
2018-12-06T14:46:40.393Z,5.51
2018-12-06T14:49:10.648Z,5.46
2018-12-06T14:51:40.468Z,5.38
2018-12-06T14:54:10.632Z,5.35
2018-12-06T14:56:40.422Z,5.29
2018-12-06T14:59:10.193Z,5.20
2018-12-06T15:01:39.838Z,4.94
2018-12-06T15:04:09.579Z,4.80
2018-12-06T15:06:39.376Z,4.82
2018-12-06T15:09:09.756Z,4.70
2018-12-06T15:11:39.554Z,4.56
2018-12-06T15:14:09.448Z,4.52
2018-12-06T15:16:39.145Z,4.44
2018-12-06T15:19:08.833Z,4.39
2018-12-06T15:21:38.502Z,4.27
2018-12-06T15:24:09.073Z,4.14
2018-12-06T15:26:38.795Z,4.06
2018-12-06T15:29:08.632Z,3.94
2018-12-06T15:31:38.356Z,3.87
2018-12-06T15:34:07.925Z,3.79
2018-12-06T15:36:37.798Z,3.74
2018-12-06T15:39:09.541Z,3.68
2018-12-06T15:41:39.245Z,3.73
2018-12-06T15:44:09.714Z,3.83
2018-12-06T15:46:39.334Z,3.76
2018-12-06T15:49:09.213Z,3.74
2018-12-06T15:51:39.117Z,3.71
2018-12-06T15:54:08.982Z,3.71
2018-12-06T15:56:38.999Z,3.67
2018-12-06T15:59:08.869Z,3.66
2018-12-06T16:01:38.896Z,3.57
2018-12-06T16:04:08.647Z,3.54
2018-12-06T16:06:38.371Z,3.75
2018-12-06T16:09:08.757Z,3.74
2018-12-06T16:11:38.475Z,3.71
2018-12-06T16:14:08.499Z,3.68
2018-12-06T16:16:38.103Z,3.37
2018-12-06T16:19:07.715Z,3.31
2018-12-06T16:21:37.577Z,3.12
2018-12-06T16:24:07.354Z,2.95
2018-12-06T16:26:37.098Z,2.98
2018-12-06T16:29:06.646Z,2.95
2018-12-06T16:31:36.623Z,3.05
2018-12-06T16:34:06.451Z,3.06
2018-12-06T16:36:36.258Z,3.04
2018-12-06T16:39:08.702Z,2.98
2018-12-06T16:41:38.484Z,2.87
2018-12-06T16:44:08.941Z,2.69
2018-12-06T16:46:38.829Z,2.52
2018-12-06T16:49:10.249Z,2.64
2018-12-06T16:51:40.196Z,2.61
2018-12-06T16:54:10.519Z,2.56
2018-12-06T16:56:40.418Z,2.46
2018-12-06T16:59:10.184Z,2.57
2018-12-06T17:01:39.807Z,2.65
2018-12-06T17:04:09.523Z,2.76
2018-12-06T17:06:39.340Z,2.67
2018-12-06T17:09:09.463Z,2.71
2018-12-06T17:11:39.144Z,2.68
2018-12-06T17:14:09.216Z,2.71
2018-12-06T17:16:38.922Z,2.62
2018-12-06T17:19:08.761Z,2.70
2018-12-06T17:21:38.652Z,2.70
2018-12-06T17:24:08.429Z,2.68
2018-12-06T17:26:38.184Z,2.64
2018-12-06T17:29:08.020Z,2.47
2018-12-06T17:31:37.818Z,2.40
2018-12-06T17:34:07.623Z,2.36
2018-12-06T17:36:37.424Z,2.27
2018-12-06T17:39:08.938Z,2.15
2018-12-06T17:41:38.793Z,2.13
2018-12-06T17:44:08.429Z,2.22
2018-12-06T17:46:38.351Z,2.26
2018-12-06T17:49:08.080Z,2.19
2018-12-06T17:51:37.745Z,2.18
2018-12-06T17:54:07.567Z,2.00
2018-12-06T17:56:37.397Z,2.09
2018-12-06T17:59:07.046Z,1.98
2018-12-06T18:01:37.601Z,1.94
2018-12-06T18:04:07.410Z,1.96
2018-12-06T18:06:37.246Z,2.14
2018-12-06T18:09:08.517Z,2.30
2018-12-06T18:11:38.187Z,2.20
2018-12-06T18:14:07.801Z,2.15
2018-12-06T18:16:38.266Z,2.06
2018-12-06T18:19:08.071Z,2.01
2018-12-06T18:21:37.835Z,1.75
2018-12-06T18:24:08.421Z,1.59
2018-12-06T18:26:38.284Z,1.73
2018-12-06T18:29:08.106Z,1.54
2018-12-06T18:31:37.881Z,1.25
2018-12-06T18:34:07.678Z,1.32
2018-12-06T18:36:37.334Z,1.45
2018-12-06T18:39:09.182Z,1.30
2018-12-06T18:41:39.331Z,1.32
2018-12-06T18:44:08.954Z,1.10
2018-12-06T18:46:39.103Z,1.29
2018-12-06T18:49:08.985Z,1.13
2018-12-06T18:51:38.488Z,0.94
2018-12-06T18:54:08.408Z,0.65
2018-12-06T18:56:38.166Z,0.45
2018-12-06T18:59:07.851Z,0.73
2018-12-06T19:01:37.819Z,1.03
2018-12-06T19:04:07.562Z,0.84
2018-12-06T19:06:43.495Z,0.36
2018-12-06T19:09:13.234Z,0.60
2018-12-06T19:11:43.237Z,0.57
2018-12-06T19:14:13.159Z,0.70
2018-12-06T19:16:44.282Z,0.60
2018-12-06T19:19:13.912Z,0.57
2018-12-06T19:21:43.707Z,0.54
2018-12-06T19:24:13.574Z,0.64
2018-12-06T19:26:43.342Z,0.65
2018-12-06T19:29:13.116Z,0.51
2018-12-06T19:31:42.726Z,0.43
2018-12-06T19:34:13.541Z,0.45
2018-12-06T19:36:43.264Z,0.51
2018-12-06T19:39:13.131Z,0.46
2018-12-06T19:41:43.687Z,0.35
2018-12-06T19:44:13.497Z,0.17
2018-12-06T19:46:43.139Z,0.13
2018-12-06T19:49:12.800Z,0.05
2018-12-06T19:51:42.747Z,0.07
2018-12-06T19:54:12.510Z,-0.04
2018-12-06T19:56:42.395Z,-0.04
2018-12-06T19:59:12.269Z,-0.06
2018-12-06T20:01:41.810Z,-0.15
2018-12-06T20:04:11.476Z,-0.15
2018-12-06T20:06:41.128Z,-0.39
2018-12-06T20:09:13.469Z,-0.35
2018-12-06T20:11:45.234Z,-0.31
2018-12-06T20:14:14.975Z,-0.36
2018-12-06T20:16:44.721Z,-0.22
2018-12-06T20:19:14.496Z,-0.39
2018-12-06T20:21:44.099Z,-0.59
2018-12-06T20:24:13.936Z,-0.51
2018-12-06T20:26:43.959Z,-0.47
2018-12-06T20:36:15.935Z,-0.41
2018-12-06T20:38:45.581Z,-0.47
2018-12-06T20:41:15.858Z,-0.45
2018-12-06T20:43:45.617Z,-0.39
2018-12-06T20:46:15.458Z,-0.43
2018-12-06T20:48:45.163Z,-0.24
2018-12-06T20:51:14.876Z,-0.29
2018-12-06T20:53:44.630Z,-0.35
2018-12-06T20:56:14.223Z,-0.38
2018-12-06T20:58:44.049Z,-0.40
2018-12-06T21:01:14.423Z,-0.52
2018-12-06T21:03:44.184Z,-0.40
2018-12-06T21:06:14.003Z,-0.62
2018-12-06T21:08:43.782Z,-0.68
2018-12-06T21:11:13.532Z,-0.57
2018-12-06T21:13:43.797Z,-0.70
2018-12-06T21:16:13.530Z,-0.57
2018-12-06T21:18:43.130Z,-0.60
2018-12-06T21:21:13.183Z,-0.70
2018-12-06T21:23:42.863Z,-0.67
2018-12-06T21:26:12.565Z,-0.72
2018-12-06T21:28:42.358Z,-0.75
2018-12-06T21:31:12.237Z,-0.91
2018-12-06T21:33:41.906Z,-0.97
2018-12-06T21:36:11.579Z,-1.10
2018-12-06T21:38:41.596Z,-0.89
2018-12-06T21:41:11.222Z,-0.85
2018-12-06T21:43:40.947Z,-0.91
2018-12-06T21:46:10.634Z,-0.88
2018-12-06T21:48:40.171Z,-1.07
2018-12-06T21:51:10.072Z,-1.06
2018-12-06T21:53:39.884Z,-0.99
2018-12-06T21:56:09.568Z,-1.15
2018-12-06T21:58:39.452Z,-1.01
2018-12-06T22:01:09.298Z,-1.09
2018-12-06T22:03:39.227Z,-1.10
2018-12-06T22:06:08.966Z,-1.12
2018-12-06T22:08:38.734Z,-1.12
2018-12-06T22:11:08.629Z,-1.16
2018-12-06T22:13:38.359Z,-1.32
2018-12-06T22:16:07.978Z,-1.40
2018-12-06T22:18:37.996Z,-1.53
2018-12-06T22:21:07.995Z,-1.47
2018-12-06T22:23:38.087Z,-1.59
2018-12-06T22:26:07.994Z,-1.64
2018-12-06T22:28:37.919Z,-1.66
2018-12-06T22:31:07.625Z,-1.65
2018-12-06T22:33:37.229Z,-1.64
2018-12-06T22:36:06.909Z,-1.50
2018-12-06T22:38:36.527Z,-1.51
2018-12-06T22:41:06.204Z,-1.50
2018-12-06T22:43:36.055Z,-1.51
2018-12-06T22:46:06.076Z,-1.74
2018-12-06T22:48:35.765Z,-1.77
2018-12-06T22:51:05.788Z,-1.86
2018-12-06T22:53:35.399Z,-1.71
2018-12-06T22:56:05.316Z,-1.66
2018-12-06T22:58:35.169Z,-1.66
2018-12-06T23:01:08.462Z,-1.71
2018-12-06T23:03:38.092Z,-1.70
2018-12-06T23:06:07.999Z,-1.84
2018-12-06T23:08:37.639Z,-1.82
2018-12-06T23:11:07.790Z,-1.67
2018-12-06T23:13:37.503Z,-1.69
2018-12-06T23:16:07.355Z,-1.80
2018-12-06T23:18:37.253Z,-1.84
2018-12-06T23:21:07.024Z,-1.91
2018-12-06T23:23:37.174Z,-1.64
2018-12-06T23:26:06.792Z,-1.60
2018-12-06T23:28:36.412Z,-1.65
2018-12-06T23:31:06.215Z,-1.57
2018-12-06T23:33:35.990Z,-1.67
2018-12-06T23:36:05.740Z,-1.75
2018-12-06T23:38:35.456Z,-1.79
2018-12-06T23:41:05.688Z,-1.85
2018-12-06T23:43:35.360Z,-1.81
2018-12-06T23:46:05.387Z,-2.07
2018-12-06T23:48:35.055Z,-2.03
2018-12-06T23:51:15.491Z,-2.08
2018-12-06T23:53:45.076Z,-2.03
2018-12-06T23:56:14.681Z,-1.99
2018-12-06T23:58:44.295Z,-2.07
